createdAt,value
2018-09-12T00:01:35.963Z,16.56
2018-09-12T00:04:05.435Z,16.72
2018-09-12T00:06:34.831Z,16.74
2018-09-12T00:09:06.047Z,16.75
2018-09-12T00:11:35.446Z,16.71
2018-09-12T00:14:04.871Z,16.62
2018-09-12T00:16:34.766Z,16.57
2018-09-12T00:19:04.153Z,16.53
2018-09-12T00:21:33.897Z,16.46
2018-09-12T00:24:03.305Z,16.42
2018-09-12T00:26:32.810Z,16.42
2018-09-12T00:29:02.194Z,16.41
2018-09-12T00:31:31.675Z,16.38
2018-09-12T00:34:01.060Z,16.42
2018-09-12T00:36:30.514Z,16.44
2018-09-12T00:39:00.885Z,16.40
2018-09-12T00:41:30.321Z,16.34
2018-09-12T00:43:59.693Z,16.27
2018-09-12T00:46:29.196Z,16.20
2018-09-12T00:48:58.602Z,16.09
2018-09-12T00:51:28.024Z,16.06
2018-09-12T00:53:57.418Z,16.09
2018-09-12T00:56:27.008Z,16.03
2018-09-12T00:58:56.427Z,15.94
2018-09-12T01:01:25.821Z,16.35
2018-09-12T01:03:55.254Z,16.14
2018-09-12T01:06:24.630Z,16.54
2018-09-12T01:08:54.031Z,16.94
2018-09-12T01:11:24.503Z,16.76
2018-09-12T01:13:55.231Z,17.71
2018-09-12T01:16:24.639Z,17.16
2018-09-12T01:18:54.077Z,16.90
2018-09-12T01:21:23.522Z,16.72
2018-09-12T01:23:52.927Z,16.52
2018-09-12T01:26:22.423Z,16.38
2018-09-12T01:28:51.800Z,16.28
2018-09-12T01:31:21.230Z,16.16
2018-09-12T01:33:50.711Z,16.17
2018-09-12T01:36:20.136Z,16.13
2018-09-12T01:38:49.521Z,16.17
2018-09-12T01:41:18.921Z,16.02
2018-09-12T01:43:48.291Z,15.86
2018-09-12T01:46:17.734Z,15.74
2018-09-12T01:48:47.230Z,15.60
2018-09-12T01:51:16.906Z,15.59
2018-09-12T01:53:46.287Z,15.65
2018-09-12T01:56:15.780Z,15.71
2018-09-12T01:58:45.368Z,15.75
2018-09-12T02:01:14.858Z,15.91
2018-09-12T02:03:44.238Z,15.92
2018-09-12T02:06:13.686Z,15.77
2018-09-12T02:08:43.091Z,15.59
2018-09-12T02:11:12.634Z,15.39
2018-09-12T02:13:42.109Z,15.24
2018-09-12T02:16:11.599Z,15.10
2018-09-12T02:18:40.980Z,15.02
2018-09-12T02:21:10.419Z,15.03
2018-09-12T02:23:39.798Z,14.96
2018-09-12T02:26:09.213Z,14.88
2018-09-12T02:28:38.619Z,14.85
2018-09-12T02:31:08.211Z,14.88
2018-09-12T02:33:37.640Z,14.96
2018-09-12T02:36:12.429Z,15.21
2018-09-12T02:38:41.851Z,15.10
2018-09-12T02:41:11.358Z,15.12
2018-09-12T02:43:40.763Z,15.03
2018-09-12T02:46:10.244Z,15.05
2018-09-12T02:48:39.619Z,14.96
2018-09-12T02:51:09.038Z,14.89
2018-09-12T02:53:38.479Z,14.76
2018-09-12T02:56:08.085Z,14.69
2018-09-12T02:58:37.487Z,14.72
2018-09-12T03:01:07.112Z,14.72
2018-09-12T03:03:36.582Z,14.82
2018-09-12T03:06:06.302Z,14.89
2018-09-12T03:08:35.692Z,14.97
2018-09-12T03:11:05.301Z,14.86
2018-09-12T03:13:34.847Z,14.79
2018-09-12T03:16:04.410Z,14.71
2018-09-12T03:18:33.830Z,14.65
2018-09-12T03:21:03.469Z,14.55
2018-09-12T03:23:32.777Z,14.39
2018-09-12T03:26:02.246Z,14.36
2018-09-12T03:28:31.676Z,14.43
2018-09-12T03:31:01.140Z,14.23
2018-09-12T03:33:30.551Z,14.29
2018-09-12T03:36:00.047Z,14.36
2018-09-12T03:38:29.429Z,14.90
2018-09-12T03:40:58.853Z,14.90
2018-09-12T03:43:28.228Z,14.69
2018-09-12T03:45:57.840Z,14.57
2018-09-12T03:48:27.223Z,14.35
2018-09-12T03:50:56.677Z,14.30
2018-09-12T03:53:26.098Z,14.31
2018-09-12T03:55:55.599Z,14.24
2018-09-12T03:58:25.004Z,14.15
2018-09-12T04:00:54.483Z,14.06
2018-09-12T04:03:24.002Z,14.01
2018-09-12T04:05:53.395Z,13.98
2018-09-12T04:08:22.791Z,13.97
2018-09-12T04:10:52.175Z,13.94
2018-09-12T04:13:21.570Z,13.99
2018-09-12T04:15:51.025Z,13.84
2018-09-12T04:18:20.463Z,13.73
2018-09-12T04:20:49.908Z,13.68
2018-09-12T04:23:19.326Z,13.70
2018-09-12T04:25:48.813Z,13.60
2018-09-12T04:28:18.208Z,13.58
2018-09-12T04:30:47.605Z,13.59
2018-09-12T04:33:17.266Z,13.56
2018-09-12T04:35:46.710Z,13.44
2018-09-12T04:38:16.105Z,13.47
2018-09-12T04:40:45.533Z,13.52
2018-09-12T04:43:14.897Z,13.57
2018-09-12T04:45:44.340Z,13.75
2018-09-12T04:48:13.754Z,13.73
2018-09-12T04:50:43.283Z,13.68
2018-09-12T04:53:12.667Z,13.50
2018-09-12T04:55:42.059Z,13.52
2018-09-12T04:58:11.444Z,13.56
2018-09-12T05:00:40.849Z,13.57
2018-09-12T05:03:10.253Z,13.45
2018-09-12T05:05:39.675Z,13.30
2018-09-12T05:08:09.066Z,13.23
2018-09-12T05:10:38.536Z,13.27
2018-09-12T05:13:07.961Z,13.28
2018-09-12T05:15:37.371Z,13.26
2018-09-12T05:18:06.790Z,13.12
2018-09-12T05:20:36.282Z,13.10
2018-09-12T05:23:05.671Z,13.11
2018-09-12T05:25:35.106Z,13.06
2018-09-12T05:28:04.493Z,13.06
2018-09-12T05:30:33.897Z,13.13
2018-09-12T05:33:03.298Z,13.18
2018-09-12T05:35:32.691Z,13.22
2018-09-12T05:38:02.137Z,13.26
2018-09-12T05:40:31.670Z,13.37
2018-09-12T05:43:01.054Z,13.40
2018-09-12T05:45:30.537Z,13.49
2018-09-12T05:47:59.900Z,13.57
2018-09-12T05:50:29.308Z,13.72
2018-09-12T05:52:58.705Z,13.82
2018-09-12T05:55:28.100Z,13.93
2018-09-12T05:57:57.501Z,14.10
2018-09-12T06:00:26.918Z,14.20
2018-09-12T06:02:56.298Z,14.29
2018-09-12T06:05:25.678Z,14.30
2018-09-12T06:07:55.095Z,14.40
2018-09-12T06:10:24.515Z,14.49
2018-09-12T06:12:53.886Z,14.61
2018-09-12T06:15:23.327Z,14.68
2018-09-12T06:17:52.679Z,14.79
2018-09-12T06:20:22.087Z,14.90
2018-09-12T06:22:51.475Z,15.04
2018-09-12T06:25:20.947Z,15.17
2018-09-12T06:27:50.302Z,15.30
2018-09-12T06:30:19.764Z,15.37
2018-09-12T06:32:49.172Z,15.53
2018-09-12T06:35:18.678Z,15.63
2018-09-12T06:37:48.089Z,15.77
2018-09-12T06:40:17.463Z,15.92
2018-09-12T06:42:46.828Z,16.09
2018-09-12T06:45:16.285Z,16.27
2018-09-12T06:47:45.679Z,16.43
2018-09-12T06:50:15.069Z,16.61
2018-09-12T06:52:44.456Z,16.81
2018-09-12T06:55:13.855Z,17.04
2018-09-12T06:57:43.249Z,17.23
2018-09-12T07:00:12.680Z,17.37
2018-09-12T07:02:42.036Z,17.47
2018-09-12T07:05:11.487Z,17.66
2018-09-12T07:07:40.934Z,17.62
2018-09-12T07:10:10.294Z,17.72
2018-09-12T07:12:39.666Z,17.86
2018-09-12T07:15:09.079Z,17.96
2018-09-12T07:17:38.430Z,17.97
2018-09-12T07:20:07.810Z,18.11
2018-09-12T07:22:37.293Z,18.26
2018-09-12T07:25:06.756Z,18.43
2018-09-12T07:27:36.257Z,18.47
2018-09-12T07:30:05.799Z,18.73
2018-09-12T07:32:35.235Z,18.81
2018-09-12T07:35:04.652Z,18.95
2018-09-12T07:37:33.964Z,19.07
2018-09-12T07:40:03.502Z,19.03
2018-09-12T07:42:32.952Z,19.16
2018-09-12T07:45:02.439Z,19.34
2018-09-12T07:47:31.806Z,19.49
2018-09-12T07:50:01.254Z,19.66
2018-09-12T07:52:30.621Z,19.72
2018-09-12T07:55:00.046Z,19.86
2018-09-12T07:57:29.473Z,20.03
2018-09-12T07:59:58.957Z,20.21
2018-09-12T08:02:28.352Z,20.40
2018-09-12T08:04:57.821Z,20.39
2018-09-12T08:07:27.156Z,20.64
2018-09-12T08:09:56.575Z,20.89
2018-09-12T08:12:25.939Z,21.04
2018-09-12T08:14:55.362Z,21.27
2018-09-12T08:17:24.743Z,21.51
2018-09-12T08:19:54.169Z,21.71
2018-09-12T08:22:23.554Z,21.94
2018-09-12T08:24:52.977Z,22.06
2018-09-12T08:27:22.355Z,22.11
2018-09-12T08:29:51.797Z,22.19
2018-09-12T08:32:21.152Z,22.32
2018-09-12T08:34:50.574Z,22.33
2018-09-12T08:37:19.955Z,22.23
2018-09-12T08:39:49.399Z,22.45
2018-09-12T08:42:18.855Z,22.57
2018-09-12T08:44:48.198Z,22.70
2018-09-12T08:47:17.576Z,22.78
2018-09-12T08:49:47.034Z,22.93
2018-09-12T08:52:16.392Z,23.16
2018-09-12T08:54:45.826Z,23.44
2018-09-12T08:57:15.201Z,23.49
2018-09-12T08:59:44.631Z,23.82
2018-09-12T09:02:14.018Z,23.88
2018-09-12T09:04:43.417Z,24.55
2018-09-12T09:07:12.791Z,24.84
2018-09-12T09:09:42.184Z,25.11
2018-09-12T09:12:11.550Z,24.99
2018-09-12T09:14:41.062Z,25.01
2018-09-12T09:17:10.516Z,24.95
2018-09-12T09:19:39.841Z,25.31
2018-09-12T09:22:09.241Z,25.70
2018-09-12T09:24:38.635Z,25.38
2018-09-12T09:27:08.116Z,24.97
2018-09-12T09:29:37.522Z,25.45
2018-09-12T09:32:07.122Z,25.55
2018-09-12T09:34:36.494Z,25.56
2018-09-12T09:37:06.059Z,25.85
2018-09-12T09:39:35.443Z,26.33
2018-09-12T09:42:04.875Z,25.98
2018-09-12T09:44:34.243Z,26.28
2018-09-12T09:47:03.665Z,26.64
2018-09-12T09:49:33.060Z,26.60
2018-09-12T09:52:02.482Z,26.29
2018-09-12T09:54:31.936Z,26.15
2018-09-12T09:57:01.258Z,26.30
2018-09-12T09:59:30.762Z,26.05
2018-09-12T10:02:05.439Z,26.41
2018-09-12T10:04:40.165Z,26.40
2018-09-12T10:07:14.767Z,26.38
2018-09-12T10:09:44.154Z,26.59
2018-09-12T10:12:13.572Z,26.16
2018-09-12T10:14:42.971Z,26.68
2018-09-12T10:17:12.373Z,26.74
2018-09-12T10:19:41.745Z,26.87
2018-09-12T10:22:11.230Z,26.42
2018-09-12T10:24:40.554Z,26.53
2018-09-12T10:27:10.009Z,26.83
2018-09-12T10:29:39.386Z,26.62
2018-09-12T10:32:08.798Z,27.26
2018-09-12T10:34:42.010Z,27.05
2018-09-12T10:37:12.030Z,26.99
2018-09-12T10:39:41.401Z,26.83
2018-09-12T10:42:10.821Z,27.06
2018-09-12T10:44:40.334Z,27.02
2018-09-12T10:47:09.933Z,27.00
2018-09-12T10:49:39.317Z,27.37
2018-09-12T10:52:08.710Z,27.66
2018-09-12T10:54:38.084Z,27.82
2018-09-12T10:57:07.525Z,27.22
2018-09-12T10:59:36.894Z,28.16
2018-09-12T11:02:06.317Z,27.57
2018-09-12T11:04:35.768Z,28.22
2018-09-12T11:07:05.138Z,28.37
2018-09-12T11:09:34.519Z,28.41
2018-09-12T11:12:03.923Z,29.12
2018-09-12T11:14:33.297Z,28.91
2018-09-12T11:17:02.767Z,28.50
2018-09-12T11:19:32.250Z,28.74
2018-09-12T11:22:01.655Z,30.24
2018-09-12T11:24:31.012Z,30.21
2018-09-12T11:27:00.462Z,29.76
2018-09-12T11:29:29.869Z,30.20
2018-09-12T11:31:59.414Z,30.22
2018-09-12T11:34:28.775Z,31.15
2018-09-12T11:36:58.179Z,31.01
2018-09-12T11:39:27.543Z,30.79
2018-09-12T11:41:56.999Z,30.05
2018-09-12T11:44:26.381Z,29.73
2018-09-12T11:46:55.747Z,31.04
2018-09-12T11:49:25.144Z,30.16
2018-09-12T11:51:54.611Z,30.15
2018-09-12T11:54:23.979Z,29.93
2018-09-12T11:56:53.486Z,30.46
2018-09-12T11:59:22.862Z,29.69
2018-09-12T12:01:52.335Z,30.52
2018-09-12T12:04:21.708Z,30.04
2018-09-12T12:06:51.115Z,29.68
2018-09-12T12:09:20.490Z,29.66
2018-09-12T12:11:50.013Z,30.22
2018-09-12T12:14:19.358Z,30.94
2018-09-12T12:16:48.818Z,31.18
2018-09-12T12:19:18.218Z,31.08
2018-09-12T12:25:20.249Z,30.58
2018-09-12T12:27:49.640Z,32.86
2018-09-12T12:30:19.135Z,31.27
2018-09-12T12:32:48.503Z,31.72
2018-09-12T12:35:17.982Z,31.50
2018-09-12T12:37:47.334Z,32.17
2018-09-12T12:40:16.742Z,30.75
2018-09-12T12:42:46.371Z,31.57
2018-09-12T12:45:15.974Z,30.26
2018-09-12T12:47:45.361Z,31.24
2018-09-12T12:50:14.751Z,30.16
2018-09-12T12:52:44.119Z,30.21
2018-09-12T12:55:13.557Z,30.82
2018-09-12T12:57:42.950Z,31.91
2018-09-12T13:00:12.363Z,33.00
2018-09-12T13:02:41.732Z,31.91
2018-09-12T13:05:11.177Z,32.42
2018-09-12T13:07:40.532Z,32.18
2018-09-12T13:10:09.958Z,32.14
2018-09-12T13:12:39.334Z,30.36
2018-09-12T13:15:08.776Z,31.37
2018-09-12T13:17:38.137Z,31.28
2018-09-12T13:20:07.815Z,31.89
2018-09-12T13:22:37.218Z,31.62
2018-09-12T13:25:06.990Z,32.77
2018-09-12T13:27:36.422Z,32.54
2018-09-12T13:30:06.098Z,34.71
2018-09-12T13:32:35.474Z,32.79
2018-09-12T13:35:04.934Z,34.17
2018-09-12T13:37:34.330Z,32.81
2018-09-12T13:40:03.732Z,33.31
2018-09-12T13:42:33.067Z,33.61
2018-09-12T13:45:02.429Z,33.51
2018-09-12T13:47:31.803Z,34.01
2018-09-12T13:50:01.224Z,33.17
2018-09-12T13:52:30.594Z,33.78
2018-09-12T13:55:00.055Z,32.53
2018-09-12T13:57:29.418Z,32.12
2018-09-12T13:59:59.077Z,32.28
2018-09-12T14:02:28.453Z,32.83
2018-09-12T14:04:57.831Z,32.61
2018-09-12T14:07:27.225Z,33.07
2018-09-12T14:09:56.723Z,32.82
2018-09-12T14:12:26.113Z,33.16
2018-09-12T14:14:55.551Z,32.40
2018-09-12T14:17:24.950Z,34.03
2018-09-12T14:19:54.316Z,34.02
2018-09-12T14:22:23.776Z,31.39
2018-09-12T14:24:53.168Z,32.75
2018-09-12T14:27:22.611Z,34.83
2018-09-12T14:29:51.999Z,31.83
2018-09-12T14:32:21.440Z,34.12
2018-09-12T14:34:50.777Z,33.67
2018-09-12T14:37:20.298Z,32.29
2018-09-12T14:39:49.673Z,34.71
2018-09-12T14:42:19.184Z,33.41
2018-09-12T14:44:48.594Z,31.96
2018-09-12T14:47:17.982Z,33.65
2018-09-12T14:49:47.344Z,33.21
2018-09-12T14:52:16.806Z,33.87
2018-09-12T14:54:46.171Z,33.39
2018-09-12T14:57:15.627Z,33.77
2018-09-12T14:59:44.991Z,33.14
2018-09-12T15:02:14.429Z,33.95
2018-09-12T15:04:43.868Z,34.31
2018-09-12T15:07:13.336Z,33.43
2018-09-12T15:09:42.707Z,33.66
2018-09-12T15:12:12.063Z,32.67
2018-09-12T15:14:41.415Z,32.26
2018-09-12T15:17:10.818Z,32.22
2018-09-12T15:19:40.186Z,32.26
2018-09-12T15:22:09.658Z,33.20
2018-09-12T15:24:39.051Z,32.73
2018-09-12T15:27:08.538Z,32.00
2018-09-12T15:29:37.947Z,30.98
2018-09-12T15:32:07.450Z,32.04
2018-09-12T15:34:36.857Z,31.99
2018-09-12T15:37:06.325Z,33.13
2018-09-12T15:39:35.647Z,32.91
2018-09-12T15:42:05.072Z,31.92
2018-09-12T15:44:34.435Z,32.58
2018-09-12T15:47:03.984Z,31.33
2018-09-12T15:49:33.251Z,32.98
2018-09-12T15:52:02.616Z,31.78
2018-09-12T15:54:31.985Z,33.84
2018-09-12T15:57:01.406Z,32.28
2018-09-12T15:59:30.766Z,31.53
2018-09-12T16:02:00.427Z,31.55
2018-09-12T16:04:29.801Z,31.46
2018-09-12T16:06:59.220Z,31.84
2018-09-12T16:09:28.614Z,31.91
2018-09-12T16:11:57.995Z,31.86
2018-09-12T16:14:27.374Z,31.46
2018-09-12T16:16:56.812Z,31.47
2018-09-12T16:19:26.320Z,32.35
2018-09-12T16:21:55.857Z,33.14
2018-09-12T16:24:25.234Z,32.27
2018-09-12T16:26:54.767Z,31.10
2018-09-12T16:29:24.131Z,30.20
2018-09-12T16:31:53.542Z,29.48
2018-09-12T16:34:22.915Z,28.73
2018-09-12T16:36:52.353Z,28.53
2018-09-12T16:39:21.732Z,28.63
2018-09-12T16:41:51.122Z,28.51
2018-09-12T16:44:20.504Z,28.48
2018-09-12T16:46:49.919Z,28.49
2018-09-12T16:49:19.271Z,28.31
2018-09-12T16:51:48.654Z,28.11
2018-09-12T16:54:18.006Z,28.08
2018-09-12T16:56:47.470Z,28.03
2018-09-12T16:59:16.803Z,27.96
2018-09-12T17:01:46.251Z,27.82
2018-09-12T17:04:15.653Z,27.78
2018-09-12T17:06:45.080Z,27.74
2018-09-12T17:09:14.445Z,27.43
2018-09-12T17:11:43.875Z,27.19
2018-09-12T17:14:13.280Z,27.32
2018-09-12T17:16:42.667Z,27.26
2018-09-12T17:19:12.040Z,27.14
2018-09-12T17:21:41.484Z,27.03
2018-09-12T17:24:10.852Z,27.00
2018-09-12T17:26:40.275Z,26.81
2018-09-12T17:29:09.643Z,26.72
2018-09-12T17:31:39.080Z,26.57
2018-09-12T17:34:08.455Z,26.48
2018-09-12T17:36:37.891Z,26.40
2018-09-12T17:39:09.130Z,26.31
2018-09-12T17:41:38.556Z,26.12
2018-09-12T17:44:07.923Z,25.91
2018-09-12T17:46:37.375Z,25.87
2018-09-12T17:49:06.739Z,25.79
2018-09-12T17:51:36.139Z,25.63
2018-09-12T17:54:05.514Z,25.46
2018-09-12T17:56:34.998Z,25.49
2018-09-12T17:59:04.366Z,25.36
2018-09-12T18:01:33.783Z,25.16
2018-09-12T18:04:03.155Z,25.38
2018-09-12T18:06:32.580Z,25.08
2018-09-12T18:09:01.955Z,25.09
2018-09-12T18:11:31.384Z,24.87
2018-09-12T18:14:00.764Z,24.72
2018-09-12T18:16:30.216Z,25.05
2018-09-12T18:18:59.573Z,24.81
2018-09-12T18:21:28.946Z,24.83
2018-09-12T18:24:00.549Z,25.08
2018-09-12T18:26:30.043Z,24.99
2018-09-12T18:28:59.642Z,24.94
2018-09-12T18:31:29.056Z,24.96
2018-09-12T18:33:58.473Z,24.87
2018-09-12T18:36:27.876Z,24.86
2018-09-12T18:38:57.278Z,24.87
2018-09-12T18:41:26.663Z,24.66
2018-09-12T18:43:56.069Z,24.54
2018-09-12T18:46:25.459Z,24.52
2018-09-12T18:48:54.895Z,24.68
2018-09-12T18:51:24.284Z,24.45
2018-09-12T18:53:53.743Z,24.20
2018-09-12T18:56:23.149Z,24.46
2018-09-12T18:58:52.530Z,24.34
2018-09-12T19:01:22.110Z,24.28
2018-09-12T19:03:51.471Z,24.28
2018-09-12T19:06:20.880Z,24.24
2018-09-12T19:08:50.322Z,24.17
2018-09-12T19:11:19.720Z,24.44
2018-09-12T19:13:49.117Z,24.46
2018-09-12T19:16:18.630Z,24.22
2018-09-12T19:18:48.112Z,24.00
2018-09-12T19:21:17.603Z,24.00
2018-09-12T19:23:46.924Z,23.75
2018-09-12T19:26:16.410Z,23.90
2018-09-12T19:28:45.755Z,23.96
2018-09-12T19:31:15.303Z,23.98
2018-09-12T19:33:44.702Z,24.06
2018-09-12T19:36:14.111Z,24.01
2018-09-12T19:38:43.572Z,24.41
2018-09-12T19:41:12.931Z,24.45
2018-09-12T19:43:42.374Z,24.17
2018-09-12T19:46:11.764Z,24.05
2018-09-12T19:48:41.165Z,24.33
2018-09-12T19:51:16.783Z,24.16
2018-09-12T19:53:46.779Z,24.11
2018-09-12T19:56:16.393Z,24.18
2018-09-12T19:58:46.085Z,24.24
2018-09-12T20:01:15.474Z,24.11
2018-09-12T20:03:44.974Z,24.19
2018-09-12T20:06:14.377Z,24.12
2018-09-12T20:08:43.880Z,24.21
2018-09-12T20:11:13.265Z,24.40
2018-09-12T20:13:42.675Z,24.30
2018-09-12T20:16:12.122Z,24.28
2018-09-12T20:18:41.493Z,24.36
2018-09-12T20:21:10.994Z,23.95
2018-09-12T20:23:40.448Z,23.88
2018-09-12T20:26:09.779Z,23.80
2018-09-12T20:28:41.530Z,23.82
2018-09-12T20:31:11.302Z,23.73
2018-09-12T20:33:40.735Z,23.62
2018-09-12T20:36:10.174Z,23.73
2018-09-12T20:38:39.774Z,23.74
2018-09-12T20:41:09.163Z,23.71
2018-09-12T20:43:38.662Z,23.64
2018-09-12T20:46:08.053Z,23.51
2018-09-12T20:48:37.518Z,23.44
2018-09-12T20:51:07.039Z,23.28
2018-09-12T20:53:36.491Z,23.27
2018-09-12T20:56:05.890Z,23.09
2018-09-12T20:58:35.385Z,22.91
2018-09-12T21:01:04.823Z,22.67
2018-09-12T21:03:34.308Z,22.49
2018-09-12T21:06:03.711Z,22.24
2018-09-12T21:08:33.194Z,21.90
2018-09-12T21:11:02.579Z,21.70
2018-09-12T21:13:32.027Z,21.67
2018-09-12T21:16:01.420Z,21.57
2018-09-12T21:18:31.651Z,21.50
2018-09-12T21:21:01.074Z,22.16
2018-09-12T21:23:30.568Z,22.15
2018-09-12T21:25:59.930Z,21.87
2018-09-12T21:28:29.331Z,22.03
2018-09-12T21:30:58.807Z,21.74
2018-09-12T21:33:28.248Z,21.37
2018-09-12T21:35:57.716Z,21.47
2018-09-12T21:38:27.111Z,21.44
2018-09-12T21:40:56.602Z,21.48
2018-09-12T21:43:25.994Z,21.59
2018-09-12T21:45:56.582Z,21.74
2018-09-12T21:48:25.964Z,21.59
2018-09-12T21:50:55.498Z,21.49
2018-09-12T21:53:24.953Z,21.15
2018-09-12T21:55:54.364Z,20.86
2018-09-12T21:58:23.941Z,20.06
2018-09-12T22:00:53.347Z,19.49
2018-09-12T22:03:22.969Z,19.49
2018-09-12T22:05:52.400Z,19.62
2018-09-12T22:08:21.788Z,19.50
2018-09-12T22:10:51.278Z,19.52
2018-09-12T22:13:20.738Z,19.56
2018-09-12T22:15:50.170Z,19.67
2018-09-12T22:18:19.514Z,19.74
2018-09-12T22:20:48.899Z,19.74
2018-09-12T22:23:18.271Z,19.89
2018-09-12T22:25:47.644Z,20.03
2018-09-12T22:28:17.067Z,19.99
2018-09-12T22:30:46.522Z,20.01
2018-09-12T22:33:15.974Z,19.83
2018-09-12T22:35:45.366Z,19.82
2018-09-12T22:38:14.743Z,19.78
2018-09-12T22:40:44.199Z,19.72
2018-09-12T22:43:13.577Z,19.71
2018-09-12T22:45:42.985Z,19.66
2018-09-12T22:48:12.350Z,19.63
2018-09-12T22:50:41.728Z,19.57
2018-09-12T22:53:11.122Z,19.64
2018-09-12T22:55:40.494Z,19.41
2018-09-12T22:58:09.850Z,19.48
2018-09-12T23:00:39.222Z,19.42
2018-09-12T23:03:08.714Z,19.42
2018-09-12T23:05:38.335Z,19.25
2018-09-12T23:08:07.852Z,19.21
2018-09-12T23:10:37.722Z,19.18
2018-09-12T23:13:07.128Z,19.16
2018-09-12T23:15:36.510Z,19.14
2018-09-12T23:18:06.181Z,19.05
2018-09-12T23:20:35.673Z,19.04
2018-09-12T23:23:05.498Z,18.94
2018-09-12T23:25:34.878Z,18.76
2018-09-12T23:28:04.415Z,18.66
2018-09-12T23:30:33.781Z,18.53
2018-09-12T23:33:03.177Z,18.40
2018-09-12T23:35:32.531Z,18.36
2018-09-12T23:38:01.991Z,18.21
2018-09-12T23:40:31.367Z,18.28
2018-09-12T23:43:00.802Z,18.39
2018-09-12T23:45:30.176Z,18.39
2018-09-12T23:47:59.563Z,18.39
2018-09-12T23:50:28.953Z,18.42
2018-09-12T23:52:58.380Z,18.41
2018-09-12T23:55:27.725Z,18.43
2018-09-12T23:57:57.251Z,18.31
